Terminal Aerodrome Forecast
Issued by NWS La Crosse, WI

Home | Current Version | Previous Version | Text Only | Print | Product List | Glossary On
Versions: 1 2 3 4 5 6 7 8 9 10 11 12 13 14 15 16 17 18 19 20 21 22 23 24 25 26 27 28 29 30 31 32 33 34 35 36 37 38 39 40
000
FTUS43 KARX 192320
TAFLSE
TAF
KLSE 192320Z 2000/2024 14008KT P6SM SKC
     FM200400 15011KT P6SM FEW250 WS015/16045KT
     FM201200 16012KT P6SM BKN100 WS020/18040KT
     FM201500 17012KT P6SM BKN020
     FM201700 22010KT P6SM BKN025
     FM202000 27008KT P6SM SCT050=

USA.gov is the U.S. government's official web portal to all federal, state and local government web resources and services.